createdAt,value
2019-05-09T00:00:06.747Z,13.97
2019-05-09T00:01:06.731Z,13.91
2019-05-09T00:02:06.777Z,14.00
2019-05-09T00:03:06.708Z,13.79
2019-05-09T00:04:06.687Z,13.88
2019-05-09T00:05:06.716Z,13.87
2019-05-09T00:06:06.687Z,13.85
2019-05-09T00:07:06.656Z,13.88
2019-05-09T00:08:06.646Z,13.87
2019-05-09T00:09:06.645Z,13.79
2019-05-09T00:10:06.617Z,13.77
2019-05-09T00:11:06.640Z,13.77
2019-05-09T00:12:06.603Z,13.75
2019-05-09T00:13:06.593Z,13.77
2019-05-09T00:14:06.575Z,13.66
2019-05-09T00:15:06.574Z,13.73
2019-05-09T00:16:06.571Z,13.62
2019-05-09T00:17:06.551Z,13.64
2019-05-09T00:18:06.531Z,13.73
2019-05-09T00:19:06.530Z,13.73
2019-05-09T00:20:06.510Z,13.69
2019-05-09T00:21:06.520Z,13.75
2019-05-09T00:22:06.480Z,13.62
2019-05-09T00:23:06.474Z,13.62
2019-05-09T00:24:06.460Z,13.64
2019-05-09T00:25:06.455Z,13.64
2019-05-09T00:26:06.474Z,13.71
2019-05-09T00:27:06.417Z,13.66
2019-05-09T00:28:06.421Z,13.70
2019-05-09T00:29:06.405Z,13.66
2019-05-09T00:30:06.401Z,13.70
2019-05-09T00:31:06.424Z,13.67
2019-05-09T00:32:06.394Z,13.64
2019-05-09T00:33:06.364Z,13.79
2019-05-09T00:34:06.358Z,13.73
2019-05-09T00:35:06.342Z,13.62
2019-05-09T00:36:06.365Z,13.71
2019-05-09T00:37:06.320Z,13.73
2019-05-09T00:38:06.299Z,13.66
2019-05-09T00:39:06.304Z,13.63
2019-05-09T00:40:06.290Z,13.64
2019-05-09T00:41:06.300Z,13.64
2019-05-09T00:42:06.298Z,13.63
2019-05-09T00:43:06.257Z,13.64
2019-05-09T00:44:06.240Z,13.66
2019-05-09T00:45:06.246Z,13.69
2019-05-09T00:46:06.225Z,13.51
2019-05-09T00:47:06.222Z,13.62
2019-05-09T00:48:06.202Z,13.52
2019-05-09T00:49:06.206Z,13.59
2019-05-09T00:50:06.174Z,13.57
2019-05-09T00:51:06.180Z,13.59
2019-05-09T00:52:06.178Z,13.52
2019-05-09T00:53:06.162Z,13.54
2019-05-09T00:54:06.127Z,13.51
2019-05-09T00:55:06.122Z,13.46
2019-05-09T00:56:06.116Z,13.44
2019-05-09T00:57:06.115Z,13.44
2019-05-09T00:58:06.080Z,13.39
2019-05-09T00:59:06.070Z,13.41
2019-05-09T01:00:06.066Z,13.44
2019-05-09T01:01:06.094Z,13.38
2019-05-09T01:02:06.076Z,13.44
2019-05-09T01:03:06.029Z,13.44
2019-05-09T01:04:06.022Z,13.49
2019-05-09T01:05:06.012Z,13.49
2019-05-09T01:06:06.012Z,13.52
2019-05-09T01:07:06.012Z,13.44
2019-05-09T01:08:05.980Z,13.46
2019-05-09T01:09:05.969Z,13.44
2019-05-09T01:10:05.965Z,13.51
2019-05-09T01:11:12.294Z,13.49
2019-05-09T01:12:06.947Z,13.44
2019-05-09T01:13:05.922Z,13.41
2019-05-09T01:14:05.925Z,13.38
2019-05-09T01:15:05.905Z,13.45
2019-05-09T01:16:05.888Z,13.42
2019-05-09T01:17:05.903Z,13.36
2019-05-09T01:18:05.883Z,13.41
2019-05-09T01:19:05.850Z,13.41
2019-05-09T01:20:05.860Z,13.45
2019-05-09T01:21:05.830Z,13.38
2019-05-09T01:22:05.857Z,13.38
2019-05-09T01:23:05.811Z,13.36
2019-05-09T01:24:05.793Z,13.38
2019-05-09T01:25:05.783Z,13.33
2019-05-09T01:26:05.765Z,13.33
2019-05-09T01:27:05.800Z,13.33
2019-05-09T01:28:05.747Z,13.30
2019-05-09T01:29:05.753Z,13.38
2019-05-09T01:30:05.726Z,13.36
2019-05-09T01:31:05.727Z,13.33
2019-05-09T01:32:05.739Z,13.39
2019-05-09T01:33:05.716Z,13.32
2019-05-09T01:34:05.687Z,13.39
2019-05-09T01:35:05.683Z,13.36
2019-05-09T01:36:05.668Z,13.41
2019-05-09T01:37:05.654Z,13.32
2019-05-09T01:38:05.681Z,13.30
2019-05-09T01:39:05.619Z,13.30
2019-05-09T01:40:05.628Z,13.29
2019-05-09T01:41:05.597Z,13.36
2019-05-09T01:42:05.595Z,13.38
2019-05-09T01:43:05.613Z,13.28
2019-05-09T01:44:05.583Z,13.38
2019-05-09T01:45:05.570Z,13.32
2019-05-09T01:46:05.561Z,13.32
2019-05-09T01:47:05.542Z,13.30
2019-05-09T01:48:05.554Z,13.38
2019-05-09T01:49:05.520Z,13.33
2019-05-09T01:50:05.502Z,13.28
2019-05-09T01:51:05.502Z,13.28
2019-05-09T01:52:05.478Z,13.22
2019-05-09T01:53:05.488Z,13.29
2019-05-09T01:54:05.478Z,13.23
2019-05-09T01:55:05.450Z,13.22
2019-05-09T01:56:05.438Z,13.28
2019-05-09T01:57:05.430Z,13.23
2019-05-09T01:58:05.445Z,13.29
2019-05-09T01:59:05.409Z,13.25
2019-05-09T02:00:05.404Z,13.22
2019-05-09T02:01:05.387Z,13.22
2019-05-09T02:02:08.623Z,13.22
2019-05-09T02:03:05.382Z,13.20
2019-05-09T02:04:05.341Z,13.29
2019-05-09T02:05:05.334Z,13.25
2019-05-09T02:06:05.331Z,13.23
2019-05-09T02:07:05.320Z,13.29
2019-05-09T02:08:05.327Z,13.26
2019-05-09T02:09:05.290Z,13.26
2019-05-09T02:10:05.288Z,13.20
2019-05-09T02:11:05.258Z,13.19
2019-05-09T02:12:05.269Z,13.20
2019-05-09T02:13:05.286Z,13.15
2019-05-09T02:14:05.238Z,13.17
2019-05-09T02:15:05.235Z,13.08
2019-05-09T02:16:05.219Z,13.08
2019-05-09T02:17:05.221Z,13.11
2019-05-09T02:18:05.448Z,13.19
2019-05-09T02:19:05.196Z,13.11
2019-05-09T02:20:05.177Z,13.22
2019-05-09T02:21:05.166Z,13.11
2019-05-09T02:22:05.164Z,13.19
2019-05-09T02:23:05.174Z,13.22
2019-05-09T02:24:05.143Z,13.04
2019-05-09T02:25:05.119Z,13.22
2019-05-09T02:26:05.102Z,13.14
2019-05-09T02:27:05.092Z,13.20
2019-05-09T02:28:05.119Z,13.11
2019-05-09T02:29:05.085Z,13.10
2019-05-09T02:30:05.954Z,13.14
2019-05-09T02:31:05.529Z,13.15
2019-05-09T02:32:05.034Z,13.17
2019-05-09T02:33:05.275Z,13.15
2019-05-09T02:34:05.244Z,13.11
2019-05-09T02:35:05.232Z,13.20
2019-05-09T02:36:04.997Z,13.12
2019-05-09T02:37:04.990Z,13.07
2019-05-09T02:38:05.005Z,13.20
2019-05-09T02:39:08.584Z,13.20
2019-05-09T02:40:04.959Z,13.19
2019-05-09T02:41:04.947Z,13.10
2019-05-09T02:42:10.725Z,13.12
2019-05-09T02:43:05.949Z,13.15
2019-05-09T02:44:04.903Z,13.20
2019-05-09T02:45:04.895Z,13.10
2019-05-09T02:46:04.897Z,13.12
2019-05-09T02:47:04.866Z,13.11
2019-05-09T02:48:04.866Z,13.17
2019-05-09T02:49:04.872Z,13.15
2019-05-09T02:50:04.834Z,13.19
2019-05-09T02:51:04.824Z,13.10
2019-05-09T02:52:04.814Z,13.15
2019-05-09T02:53:04.803Z,13.22
2019-05-09T02:54:04.835Z,13.25
2019-05-09T02:55:04.788Z,13.23
2019-05-09T02:56:04.765Z,13.23
2019-05-09T02:57:04.766Z,13.23
2019-05-09T02:58:04.765Z,13.25
2019-05-09T02:59:04.760Z,13.23
2019-05-09T03:00:04.754Z,13.22
2019-05-09T03:01:04.735Z,13.22
2019-05-09T03:02:04.706Z,13.30
2019-05-09T03:03:04.688Z,13.23
2019-05-09T03:04:04.702Z,13.29
2019-05-09T03:05:04.674Z,13.22
2019-05-09T03:06:04.673Z,13.22
2019-05-09T03:07:04.648Z,13.26
2019-05-09T03:08:04.648Z,13.17
2019-05-09T03:09:04.649Z,13.20
2019-05-09T03:10:04.614Z,13.20
2019-05-09T03:11:04.610Z,13.19
2019-05-09T03:12:20.983Z,13.17
2019-05-09T03:13:08.713Z,13.26
2019-05-09T03:14:04.596Z,13.20
2019-05-09T03:15:04.566Z,13.23
2019-05-09T03:16:04.553Z,13.20
2019-05-09T03:17:04.542Z,13.20
2019-05-09T03:18:04.529Z,13.23
2019-05-09T03:19:04.540Z,13.25
2019-05-09T03:20:04.507Z,13.22
2019-05-09T03:21:04.494Z,13.30
2019-05-09T03:22:04.484Z,13.12
2019-05-09T03:23:04.480Z,13.11
2019-05-09T03:24:04.495Z,13.17
2019-05-09T03:25:04.472Z,13.08
2019-05-09T03:26:04.430Z,13.22
2019-05-09T03:27:04.435Z,13.20
2019-05-09T03:28:04.429Z,13.12
2019-05-09T03:29:04.421Z,13.11
2019-05-09T03:30:04.396Z,13.14
2019-05-09T03:31:04.391Z,13.10
2019-05-09T03:32:04.371Z,13.20
2019-05-09T03:33:04.368Z,13.12
2019-05-09T03:34:04.374Z,13.14
2019-05-09T03:35:04.340Z,13.19
2019-05-09T03:36:04.338Z,13.10
2019-05-09T03:37:04.329Z,13.11
2019-05-09T03:38:04.303Z,13.08
2019-05-09T03:39:04.310Z,13.11
2019-05-09T03:40:04.285Z,13.11
2019-05-09T03:41:04.272Z,13.11
2019-05-09T03:42:04.258Z,13.14
2019-05-09T03:43:04.266Z,13.20
2019-05-09T03:44:04.270Z,13.12
2019-05-09T03:45:04.216Z,13.12
2019-05-09T03:46:04.222Z,13.08
2019-05-09T03:47:04.205Z,13.19
2019-05-09T03:48:04.191Z,13.19
2019-05-09T03:49:04.207Z,13.11
2019-05-09T03:50:04.172Z,13.20
2019-05-09T03:51:04.174Z,13.10
2019-05-09T03:52:04.150Z,13.08
2019-05-09T03:53:04.140Z,13.15
2019-05-09T03:54:04.129Z,13.11
2019-05-09T03:55:04.398Z,13.15
2019-05-09T03:56:04.106Z,13.08
2019-05-09T03:57:04.102Z,13.15
2019-05-09T03:58:04.092Z,13.07
2019-05-09T03:59:04.082Z,13.12
2019-05-09T04:00:04.083Z,13.12
2019-05-09T04:01:04.047Z,13.15
2019-05-09T04:02:04.035Z,13.14
2019-05-09T04:03:04.036Z,13.11
2019-05-09T04:04:04.019Z,13.12
2019-05-09T04:05:04.028Z,13.19
2019-05-09T04:06:03.998Z,13.15
2019-05-09T04:07:03.991Z,13.17
2019-05-09T04:08:03.973Z,13.12
2019-05-09T04:09:03.945Z,13.19
2019-05-09T04:10:03.969Z,13.19
2019-05-09T04:11:03.927Z,13.10
2019-05-09T04:12:03.925Z,13.12
2019-05-09T04:13:03.911Z,13.11
2019-05-09T04:14:03.906Z,13.12
2019-05-09T04:15:03.922Z,13.07
2019-05-09T04:16:03.884Z,13.25
2019-05-09T04:17:03.867Z,13.19
2019-05-09T04:18:03.853Z,13.22
2019-05-09T04:19:03.841Z,13.17
2019-05-09T04:20:03.852Z,13.22
2019-05-09T04:21:03.845Z,13.25
2019-05-09T04:22:03.814Z,13.19
2019-05-09T04:23:03.807Z,13.22
2019-05-09T04:24:03.807Z,13.28
2019-05-09T04:25:03.775Z,13.30
2019-05-09T04:26:03.783Z,13.29
2019-05-09T04:27:03.755Z,13.36
2019-05-09T04:28:03.774Z,13.36
2019-05-09T04:29:03.737Z,13.45
2019-05-09T04:30:06.435Z,13.33
2019-05-09T04:31:04.738Z,13.39
2019-05-09T04:32:03.787Z,13.38
2019-05-09T04:33:03.698Z,13.45
2019-05-09T04:34:03.706Z,13.44
2019-05-09T04:35:03.672Z,13.45
2019-05-09T04:36:03.688Z,13.44
2019-05-09T04:37:03.675Z,13.51
2019-05-09T04:38:03.642Z,13.48
2019-05-09T04:39:03.635Z,13.52
2019-05-09T04:40:03.631Z,13.46
2019-05-09T04:41:03.665Z,13.42
2019-05-09T04:42:05.556Z,13.44
2019-05-09T04:43:11.919Z,13.39
2019-05-09T04:44:05.007Z,13.42
2019-05-09T04:45:07.450Z,13.42
2019-05-09T04:46:04.561Z,13.42
2019-05-09T04:47:03.915Z,13.42
2019-05-09T04:48:03.530Z,13.46
2019-05-09T04:49:03.513Z,13.49
2019-05-09T04:50:03.499Z,13.51
2019-05-09T04:51:03.522Z,13.51
2019-05-09T04:52:03.490Z,13.46
2019-05-09T04:53:03.472Z,13.49
2019-05-09T04:54:03.467Z,13.54
2019-05-09T04:55:03.447Z,13.49
2019-05-09T04:56:03.461Z,13.51
2019-05-09T04:57:03.422Z,13.55
2019-05-09T04:58:03.404Z,13.52
2019-05-09T04:59:03.402Z,13.52
2019-05-09T05:00:03.401Z,13.59
2019-05-09T05:01:03.409Z,13.57
2019-05-09T05:02:03.404Z,13.55
2019-05-09T05:03:03.348Z,13.54
2019-05-09T05:04:03.353Z,13.59
2019-05-09T05:05:03.338Z,13.60
2019-05-09T05:06:03.322Z,13.62
2019-05-09T05:07:03.335Z,13.62
2019-05-09T05:08:03.310Z,13.69
2019-05-09T05:09:03.283Z,13.75
2019-05-09T05:10:03.297Z,13.78
2019-05-09T05:11:03.277Z,13.82
2019-05-09T05:12:03.287Z,13.78
2019-05-09T05:13:03.251Z,13.81
2019-05-09T05:14:03.232Z,13.73
2019-05-09T05:15:03.228Z,13.78
2019-05-09T05:16:03.207Z,13.77
2019-05-09T05:17:08.447Z,13.78
2019-05-09T05:18:04.198Z,13.75
2019-05-09T05:19:03.186Z,13.75
2019-05-09T05:20:03.174Z,13.81
2019-05-09T05:21:03.171Z,13.81
2019-05-09T05:22:03.164Z,13.79
2019-05-09T05:23:03.135Z,13.75
2019-05-09T05:24:03.125Z,13.73
2019-05-09T05:25:03.122Z,13.77
2019-05-09T05:26:03.106Z,13.77
2019-05-09T05:27:03.117Z,13.77
2019-05-09T05:28:03.072Z,13.78
2019-05-09T05:29:03.082Z,13.70
2019-05-09T05:30:03.063Z,13.67
2019-05-09T05:31:03.042Z,13.62
2019-05-09T05:32:03.091Z,13.54
2019-05-09T05:33:03.027Z,13.51
2019-05-09T05:34:03.036Z,13.59
2019-05-09T05:35:03.002Z,13.63
2019-05-09T05:36:02.990Z,13.62
2019-05-09T05:37:03.012Z,13.64
2019-05-09T05:38:02.984Z,13.77
2019-05-09T05:39:02.963Z,13.77
2019-05-09T05:40:02.945Z,13.77
2019-05-09T05:41:02.939Z,13.79
2019-05-09T05:42:02.943Z,13.82
2019-05-09T05:43:02.920Z,13.89
2019-05-09T05:44:02.913Z,13.85
2019-05-09T05:45:02.891Z,13.89
2019-05-09T05:46:02.872Z,13.84
2019-05-09T05:47:02.896Z,13.78
2019-05-09T05:48:02.867Z,13.84
2019-05-09T05:49:02.850Z,13.85
2019-05-09T05:50:02.833Z,13.84
2019-05-09T05:51:02.829Z,13.85
2019-05-09T05:52:02.841Z,13.92
2019-05-09T05:53:02.810Z,13.79
2019-05-09T05:54:02.811Z,13.82
2019-05-09T05:55:02.780Z,13.87
2019-05-09T05:56:02.771Z,13.85
2019-05-09T05:57:02.765Z,13.89
2019-05-09T05:58:02.866Z,13.95
2019-05-09T05:59:02.742Z,13.96
2019-05-09T06:00:02.737Z,13.96
2019-05-09T06:01:04.617Z,13.92
2019-05-09T06:02:02.701Z,13.92
2019-05-09T06:03:02.708Z,13.97
2019-05-09T06:04:02.679Z,13.96
2019-05-09T06:05:02.673Z,14.15
2019-05-09T06:06:02.649Z,14.07
2019-05-09T06:07:02.649Z,14.04
2019-05-09T06:08:02.652Z,14.17
2019-05-09T06:09:02.619Z,14.20
2019-05-09T06:10:02.619Z,14.15
2019-05-09T06:11:02.619Z,14.24
2019-05-09T06:12:02.606Z,14.14
2019-05-09T06:13:02.626Z,14.15
2019-05-09T06:14:08.869Z,14.20
2019-05-09T06:15:03.544Z,14.15
2019-05-09T06:16:02.547Z,14.15
2019-05-09T06:17:02.537Z,14.15
2019-05-09T06:18:02.541Z,14.15
2019-05-09T06:19:02.507Z,14.12
2019-05-09T06:20:02.508Z,14.10
2019-05-09T06:21:02.490Z,14.04
2019-05-09T06:22:02.477Z,14.10
2019-05-09T06:23:02.486Z,14.12
2019-05-09T06:24:02.473Z,14.20
2019-05-09T06:25:02.447Z,14.14
2019-05-09T06:26:02.455Z,14.18
2019-05-09T06:27:02.437Z,14.15
2019-05-09T06:28:02.439Z,14.20
2019-05-09T06:29:02.425Z,14.21
2019-05-09T06:30:02.397Z,14.24
2019-05-09T06:31:02.374Z,14.24
2019-05-09T06:32:02.358Z,14.20
2019-05-09T06:33:04.961Z,14.27
2019-05-09T06:34:02.345Z,14.28
2019-05-09T06:35:02.347Z,14.33
2019-05-09T06:36:02.333Z,14.33
2019-05-09T06:37:03.400Z,14.35
2019-05-09T06:38:02.300Z,14.43
2019-05-09T06:39:02.321Z,14.40
2019-05-09T06:40:02.284Z,14.52
2019-05-09T06:41:02.268Z,14.50
2019-05-09T06:42:02.269Z,14.51
2019-05-09T06:43:02.245Z,14.54
2019-05-09T06:44:13.272Z,14.55
2019-05-09T06:45:03.228Z,14.58
2019-05-09T06:46:02.221Z,14.52
2019-05-09T06:47:02.211Z,14.61
2019-05-09T06:48:02.195Z,14.55
2019-05-09T06:49:20.461Z,14.58
2019-05-09T06:50:03.160Z,14.54
2019-05-09T06:51:02.169Z,14.54
2019-05-09T06:52:02.145Z,14.50
2019-05-09T06:53:02.139Z,14.58
2019-05-09T06:54:02.132Z,14.64
2019-05-09T06:55:02.872Z,14.55
2019-05-09T06:56:02.106Z,14.64
2019-05-09T06:57:02.086Z,14.58
2019-05-09T06:58:02.093Z,14.52
2019-05-09T06:59:02.100Z,14.58
2019-05-09T07:00:02.043Z,14.57
2019-05-09T07:01:02.036Z,14.58
2019-05-09T07:02:02.032Z,14.54
2019-05-09T07:03:02.027Z,14.61
2019-05-09T07:04:02.029Z,14.57
2019-05-09T07:05:01.994Z,14.55
2019-05-09T07:06:01.996Z,14.61
2019-05-09T07:07:01.980Z,14.61
2019-05-09T07:08:01.965Z,14.60
2019-05-09T07:09:01.996Z,14.60
2019-05-09T07:10:01.958Z,14.64
2019-05-09T07:11:01.937Z,14.55
2019-05-09T07:12:01.930Z,14.62
2019-05-09T07:13:01.907Z,14.65
2019-05-09T07:14:01.924Z,14.65
2019-05-09T07:15:01.898Z,14.72
2019-05-09T07:16:01.871Z,14.72
2019-05-09T07:17:01.856Z,14.69
2019-05-09T07:18:01.861Z,14.86
2019-05-09T07:19:01.874Z,14.92
2019-05-09T07:20:01.845Z,14.92
2019-05-09T07:21:01.821Z,14.96
2019-05-09T07:22:01.823Z,15.03
2019-05-09T07:23:01.798Z,15.03
2019-05-09T07:24:01.791Z,15.07
2019-05-09T07:25:06.862Z,15.13
2019-05-09T07:26:02.766Z,15.10
2019-05-09T07:27:01.759Z,15.03
2019-05-09T07:28:01.747Z,15.03
2019-05-09T07:29:01.729Z,14.96
2019-05-09T07:30:01.790Z,14.96
2019-05-09T07:31:01.731Z,14.94
2019-05-09T07:32:01.717Z,14.92
2019-05-09T07:33:01.672Z,14.89
2019-05-09T07:34:01.677Z,14.84
2019-05-09T07:35:01.717Z,14.81
2019-05-09T07:36:01.664Z,14.84
2019-05-09T07:37:01.638Z,14.81
2019-05-09T07:38:01.635Z,14.80
2019-05-09T07:39:01.653Z,14.72
2019-05-09T07:40:01.633Z,14.73
2019-05-09T07:41:01.603Z,14.70
2019-05-09T07:42:01.606Z,14.70
2019-05-09T07:43:01.585Z,14.61
2019-05-09T07:44:01.577Z,14.62
2019-05-09T07:45:01.594Z,14.70
2019-05-09T07:46:01.553Z,14.68
2019-05-09T07:47:01.564Z,14.69
2019-05-09T07:48:01.556Z,14.80
2019-05-09T07:49:01.584Z,14.73
2019-05-09T07:50:01.517Z,14.73
2019-05-09T07:51:01.491Z,14.83
2019-05-09T07:52:06.793Z,14.78
2019-05-09T07:53:02.464Z,14.81
2019-05-09T07:54:17.178Z,14.86
2019-05-09T07:55:02.462Z,14.91
2019-05-09T07:56:01.445Z,14.91
2019-05-09T07:57:01.430Z,14.88
2019-05-09T07:58:01.407Z,14.89
2019-05-09T07:59:01.408Z,15.02
2019-05-09T08:00:01.418Z,14.95
2019-05-09T08:01:01.702Z,15.09
2019-05-09T08:02:01.362Z,15.06
2019-05-09T08:03:01.365Z,15.13
2019-05-09T08:04:01.340Z,15.11
2019-05-09T08:05:01.357Z,15.10
2019-05-09T08:06:01.325Z,15.17
2019-05-09T08:07:01.310Z,15.09
2019-05-09T08:08:01.321Z,15.16
2019-05-09T08:09:01.305Z,15.14
2019-05-09T08:10:01.348Z,15.14
2019-05-09T08:11:01.265Z,15.17
2019-05-09T08:12:01.246Z,15.23
2019-05-09T08:13:01.247Z,15.17
2019-05-09T08:14:01.251Z,15.19
2019-05-09T08:15:08.555Z,15.10
2019-05-09T08:16:02.215Z,15.13
2019-05-09T08:17:01.196Z,15.14
2019-05-09T08:18:01.196Z,15.21
2019-05-09T08:19:01.172Z,15.19
2019-05-09T08:20:01.184Z,15.23
2019-05-09T08:21:01.172Z,15.16
2019-05-09T08:22:01.135Z,15.28
2019-05-09T08:23:02.117Z,15.25
2019-05-09T08:24:01.121Z,15.21
2019-05-09T08:25:01.116Z,15.17
2019-05-09T08:26:04.462Z,15.28
2019-05-09T08:27:01.098Z,15.11
2019-05-09T08:28:01.072Z,15.19
2019-05-09T08:29:01.077Z,15.23
2019-05-09T08:30:01.062Z,15.23
2019-05-09T08:31:01.060Z,15.25
2019-05-09T08:32:01.030Z,15.27
2019-05-09T08:33:01.020Z,15.25
2019-05-09T08:34:01.012Z,15.32
2019-05-09T08:35:01.002Z,15.29
2019-05-09T08:36:01.008Z,15.32
2019-05-09T08:37:00.986Z,15.36
2019-05-09T08:38:00.978Z,15.39
2019-05-09T08:39:01.000Z,15.51
2019-05-09T08:40:00.951Z,15.51
2019-05-09T08:41:00.963Z,15.51
2019-05-09T08:42:00.923Z,15.50
2019-05-09T08:43:00.904Z,15.54
2019-05-09T08:44:00.907Z,15.53
2019-05-09T08:45:00.932Z,15.60
2019-05-09T08:46:00.902Z,15.65
2019-05-09T08:47:00.994Z,15.62
2019-05-09T08:48:01.408Z,15.64
2019-05-09T08:49:00.853Z,15.62
2019-05-09T08:50:00.827Z,15.60
2019-05-09T08:51:00.847Z,15.62
2019-05-09T08:52:10.027Z,15.65
2019-05-09T08:53:01.824Z,15.68
2019-05-09T08:54:00.796Z,15.74
2019-05-09T08:55:00.793Z,15.69
2019-05-09T08:56:00.799Z,15.67
2019-05-09T08:57:00.750Z,15.75
2019-05-09T08:58:00.781Z,15.71
2019-05-09T08:59:02.235Z,15.74
2019-05-09T09:00:00.720Z,15.62
2019-05-09T09:01:04.098Z,15.76
2019-05-09T09:02:15.031Z,15.74
2019-05-09T09:03:01.679Z,15.69
2019-05-09T09:04:00.675Z,15.72
2019-05-09T09:05:00.678Z,15.76
2019-05-09T09:06:00.673Z,15.72
2019-05-09T09:07:00.646Z,15.72
2019-05-09T09:08:00.645Z,15.75
2019-05-09T09:09:00.631Z,15.76
2019-05-09T09:10:00.610Z,15.75
2019-05-09T09:11:00.618Z,15.78
2019-05-09T09:12:00.590Z,15.83
2019-05-09T09:13:00.582Z,15.80
2019-05-09T09:14:00.567Z,15.89
2019-05-09T09:15:00.572Z,15.92
2019-05-09T09:16:14.929Z,15.90
2019-05-09T09:17:01.533Z,15.92
2019-05-09T09:18:00.522Z,15.94
2019-05-09T09:19:00.531Z,15.93
2019-05-09T09:20:00.498Z,16.01
2019-05-09T09:21:00.481Z,16.05
2019-05-09T09:22:00.765Z,16.02
2019-05-09T09:23:00.468Z,16.04
2019-05-09T09:24:00.463Z,16.09
2019-05-09T09:25:00.470Z,16.09
2019-05-09T09:26:00.430Z,16.15
2019-05-09T09:27:00.447Z,16.17
2019-05-09T09:28:00.423Z,16.17
2019-05-09T09:29:00.421Z,16.15
2019-05-09T09:30:15.550Z,16.17
2019-05-09T09:31:01.372Z,16.17
2019-05-09T09:32:00.382Z,16.15
2019-05-09T09:33:00.352Z,16.07
2019-05-09T09:34:00.338Z,16.12
2019-05-09T09:35:00.334Z,16.12
2019-05-09T09:36:00.333Z,16.14
2019-05-09T09:37:03.634Z,16.09
2019-05-09T09:38:01.330Z,16.11
2019-05-09T09:39:03.008Z,16.05
2019-05-09T09:40:00.279Z,16.05
2019-05-09T09:41:00.262Z,16.04
2019-05-09T09:42:00.282Z,16.01
2019-05-09T09:43:00.263Z,16.09
2019-05-09T09:44:00.229Z,16.12
2019-05-09T09:45:00.225Z,16.11
2019-05-09T09:46:10.289Z,16.08
2019-05-09T09:47:01.214Z,16.07
2019-05-09T09:48:00.184Z,15.97
2019-05-09T09:49:00.174Z,16.00
2019-05-09T09:50:00.600Z,15.96
2019-05-09T09:51:00.156Z,15.92
2019-05-09T09:52:00.169Z,16.01
2019-05-09T09:53:00.130Z,16.05
2019-05-09T09:54:00.120Z,16.09
2019-05-09T09:55:00.116Z,16.09
2019-05-09T09:56:00.359Z,16.15
2019-05-09T09:57:00.122Z,16.04
2019-05-09T09:58:00.082Z,16.12
2019-05-09T09:59:00.069Z,16.09
2019-05-09T10:00:00.052Z,16.11
2019-05-09T10:01:03.171Z,16.05
2019-05-09T10:02:00.062Z,16.12
2019-05-09T10:03:00.081Z,16.14
2019-05-09T10:04:15.523Z,16.11
2019-05-09T10:05:01.007Z,16.07
2019-05-09T10:06:00.042Z,16.15
2019-05-09T10:07:00.000Z,16.15
2019-05-09T10:07:59.972Z,16.20
2019-05-09T10:08:59.954Z,16.15
2019-05-09T10:09:59.945Z,16.20
2019-05-09T10:10:59.922Z,16.14
2019-05-09T10:12:00.779Z,16.17
2019-05-09T10:13:03.654Z,16.12
2019-05-09T10:13:59.935Z,16.20
2019-05-09T10:14:59.889Z,16.21
2019-05-09T10:15:59.875Z,16.25
2019-05-09T10:16:59.882Z,16.30
2019-05-09T10:17:59.863Z,16.31
2019-05-09T10:18:59.844Z,16.41
2019-05-09T10:20:00.403Z,16.30
2019-05-09T10:20:59.835Z,16.30
2019-05-09T10:21:59.799Z,16.25
2019-05-09T10:23:10.358Z,16.25
2019-05-09T10:24:00.793Z,16.14
2019-05-09T10:24:59.783Z,16.17
2019-05-09T10:25:59.765Z,16.08
2019-05-09T10:26:59.766Z,16.05
2019-05-09T10:27:59.771Z,16.00
2019-05-09T10:28:59.734Z,16.07
2019-05-09T10:29:59.718Z,16.02
2019-05-09T10:30:59.721Z,15.92
2019-05-09T10:31:59.707Z,15.90
2019-05-09T10:32:59.707Z,15.92
2019-05-09T10:33:59.678Z,16.00
2019-05-09T10:34:59.667Z,15.90
2019-05-09T10:36:04.102Z,15.84
2019-05-09T10:37:00.670Z,15.87
2019-05-09T10:37:59.653Z,15.80
2019-05-09T10:38:59.649Z,15.92
2019-05-09T10:39:59.609Z,15.82
2019-05-09T10:41:01.543Z,15.89
2019-05-09T10:41:59.590Z,15.89
2019-05-09T10:42:59.596Z,15.89
2019-05-09T10:43:59.576Z,15.78
2019-05-09T10:44:59.561Z,15.75
2019-05-09T10:45:59.543Z,15.83
2019-05-09T10:47:02.217Z,15.78
2019-05-09T10:47:59.531Z,15.84
2019-05-09T10:48:59.525Z,15.87
2019-05-09T10:49:59.487Z,15.96
2019-05-09T10:51:04.483Z,15.90
2019-05-09T10:52:00.478Z,15.96
2019-05-09T10:52:59.493Z,16.01
2019-05-09T10:53:59.459Z,16.08
2019-05-09T10:54:59.447Z,16.07
2019-05-09T10:55:59.441Z,16.15
2019-05-09T10:56:59.423Z,16.15
2019-05-09T10:58:02.421Z,16.20
2019-05-09T10:58:59.438Z,16.25
2019-05-09T10:59:59.398Z,16.15
2019-05-09T11:00:59.371Z,16.24
2019-05-09T11:01:59.367Z,16.38
2019-05-09T11:02:59.357Z,16.41
2019-05-09T11:03:59.465Z,16.53
2019-05-09T11:04:59.357Z,16.60
2019-05-09T11:05:59.314Z,16.73
2019-05-09T11:06:59.311Z,16.81
2019-05-09T11:07:59.299Z,16.76
2019-05-09T11:08:59.301Z,16.86
2019-05-09T11:09:59.283Z,16.83
2019-05-09T11:10:59.275Z,16.82
2019-05-09T11:12:01.227Z,16.82
2019-05-09T11:12:59.245Z,16.82
2019-05-09T11:13:59.344Z,16.88
2019-05-09T11:14:59.661Z,16.96
2019-05-09T11:15:59.260Z,16.94
2019-05-09T11:17:07.839Z,17.01
2019-05-09T11:18:00.204Z,16.98
2019-05-09T11:18:59.201Z,16.93
2019-05-09T11:19:59.165Z,16.89
2019-05-09T11:20:59.166Z,16.89
2019-05-09T11:21:59.145Z,16.93
2019-05-09T11:22:59.128Z,16.94
2019-05-09T11:23:59.164Z,16.93
2019-05-09T11:24:59.109Z,16.94
2019-05-09T11:25:59.095Z,16.98
2019-05-09T11:26:59.092Z,16.81
2019-05-09T11:28:10.192Z,16.85
2019-05-09T11:29:00.093Z,16.79
2019-05-09T11:29:59.068Z,16.73
2019-05-09T11:30:59.073Z,16.71
2019-05-09T11:31:59.021Z,16.70
2019-05-09T11:32:59.816Z,16.56
2019-05-09T11:33:59.011Z,16.58
2019-05-09T11:34:59.025Z,16.58
2019-05-09T11:35:58.997Z,16.56
2019-05-09T11:36:58.979Z,16.43
2019-05-09T11:37:58.972Z,16.39
2019-05-09T11:39:00.685Z,16.27
2019-05-09T11:39:58.988Z,16.33
2019-05-09T11:40:58.939Z,16.42
2019-05-09T11:41:59.199Z,16.33
2019-05-09T11:42:58.913Z,16.34
2019-05-09T11:43:59.658Z,16.35
2019-05-09T11:44:58.911Z,16.41
2019-05-09T11:45:58.968Z,16.33
2019-05-09T11:46:58.865Z,16.33
2019-05-09T11:47:58.849Z,16.30
2019-05-09T11:48:59.156Z,16.41
2019-05-09T11:49:58.857Z,16.35
2019-05-09T11:50:59.050Z,16.41
2019-05-09T11:51:58.805Z,16.33
2019-05-09T11:52:59.919Z,16.42
2019-05-09T11:53:58.784Z,16.43
2019-05-09T11:54:58.794Z,16.39
2019-05-09T11:55:58.795Z,16.45
2019-05-09T11:56:58.773Z,16.41
2019-05-09T11:57:59.242Z,16.57
2019-05-09T11:58:58.755Z,16.53
2019-05-09T11:59:58.770Z,16.58
2019-05-09T12:01:02.133Z,16.52
2019-05-09T12:01:58.895Z,16.56
2019-05-09T12:02:58.818Z,16.56
2019-05-09T12:03:58.684Z,16.61
2019-05-09T12:04:58.682Z,16.56
2019-05-09T12:05:58.661Z,16.67
2019-05-09T12:06:58.641Z,16.78
2019-05-09T12:07:58.646Z,16.71
2019-05-09T12:08:59.070Z,16.79
2019-05-09T12:09:59.052Z,16.75
2019-05-09T12:10:58.629Z,16.85
2019-05-09T12:11:59.134Z,16.91
2019-05-09T12:12:58.591Z,16.98
2019-05-09T12:13:58.551Z,16.97
2019-05-09T12:14:58.550Z,17.01
2019-05-09T12:15:58.589Z,17.12
2019-05-09T12:16:58.533Z,17.12
2019-05-09T12:18:04.078Z,17.18
2019-05-09T12:18:59.510Z,17.16
2019-05-09T12:20:09.505Z,17.12
2019-05-09T12:20:59.517Z,17.19
2019-05-09T12:21:58.512Z,17.19
2019-05-09T12:22:58.672Z,17.16
2019-05-09T12:23:58.561Z,17.18
2019-05-09T12:24:59.265Z,17.22
2019-05-09T12:25:58.426Z,17.19
2019-05-09T12:27:02.384Z,17.08
2019-05-09T12:27:58.728Z,17.14
2019-05-09T12:28:58.406Z,17.15
2019-05-09T12:29:58.450Z,17.21
2019-05-09T12:30:58.386Z,17.25
2019-05-09T12:31:58.392Z,17.26
2019-05-09T12:32:59.135Z,17.37
2019-05-09T12:33:59.284Z,17.37
2019-05-09T12:34:58.325Z,17.44
2019-05-09T12:35:59.398Z,17.37
2019-05-09T12:36:58.667Z,17.46
2019-05-09T12:37:58.293Z,17.40
2019-05-09T12:38:59.123Z,17.44
2019-05-09T12:39:58.673Z,17.44
2019-05-09T12:41:00.547Z,17.34
2019-05-09T12:41:58.275Z,17.40
2019-05-09T12:42:58.269Z,17.30
2019-05-09T12:43:58.271Z,17.26
2019-05-09T12:44:58.970Z,17.25
2019-05-09T12:45:58.209Z,17.25
2019-05-09T12:46:58.342Z,17.23
2019-05-09T12:48:07.583Z,17.25
2019-05-09T12:48:59.530Z,17.28
2019-05-09T12:50:02.470Z,17.22
2019-05-09T12:50:58.877Z,17.25
2019-05-09T12:51:58.794Z,17.28